sensor_id;sensor_type;location;lat;lon;timestamp;temperature;humidity
71396;DHT22;59888;55.814;37.132;2022-11-15T00:01:14;2.44;46.02
71396;DHT22;59888;55.814;37.132;2022-11-15T00:04:00;2.47;46.12
71396;DHT22;59888;55.814;37.132;2022-11-15T00:06:44;2.54;46.22
71396;DHT22;59888;55.814;37.132;2022-11-15T00:09:28;2.46;46.00
71396;DHT22;59888;55.814;37.132;2022-11-15T00:12:13;2.38;46.03
71396;DHT22;59888;55.814;37.132;2022-11-15T00:14:57;2.40;46.02
71396;DHT22;59888;55.814;37.132;2022-11-15T00:17:41;2.29;45.24
71396;DHT22;59888;55.814;37.132;2022-11-15T00:20:25;2.20;45.79
71396;DHT22;59888;55.814;37.132;2022-11-15T00:23:10;2.20;45.88
71396;DHT22;59888;55.814;37.132;2022-11-15T00:25:55;2.09;45.35
71396;DHT22;59888;55.814;37.132;2022-11-15T00:28:39;2.11;45.87
71396;DHT22;59888;55.814;37.132;2022-11-15T00:31:24;2.20;45.78
71396;DHT22;59888;55.814;37.132;2022-11-15T00:34:09;2.23;45.80
71396;DHT22;59888;55.814;37.132;2022-11-15T00:36:53;2.23;45.74
71396;DHT22;59888;55.814;37.132;2022-11-15T00:39:38;2.29;45.83
71396;DHT22;59888;55.814;37.132;2022-11-15T00:42:22;2.30;45.57
71396;DHT22;59888;55.814;37.132;2022-11-15T00:45:06;2.28;45.86
71396;DHT22;59888;55.814;37.132;2022-11-15T00:47:51;2.35;45.48
71396;DHT22;59888;55.814;37.132;2022-11-15T00:50:35;2.30;45.90
71396;DHT22;59888;55.814;37.132;2022-11-15T00:53:19;2.21;45.80
71396;DHT22;59888;55.814;37.132;2022-11-15T00:56:03;2.20;45.66
71396;DHT22;59888;55.814;37.132;2022-11-15T00:58:47;2.12;45.32
71396;DHT22;59888;55.814;37.132;2022-11-15T01:01:32;2.12;45.69
71396;DHT22;59888;55.814;37.132;2022-11-15T01:04:16;2.16;45.12
71396;DHT22;59888;55.814;37.132;2022-11-15T01:07:00;2.12;45.23
71396;DHT22;59888;55.814;37.132;2022-11-15T01:09:44;2.06;44.95
71396;DHT22;59888;55.814;37.132;2022-11-15T01:12:29;2.07;45.73
71396;DHT22;59888;55.814;37.132;2022-11-15T01:15:14;2.08;45.64
71396;DHT22;59888;55.814;37.132;2022-11-15T01:17:58;2.07;45.86
71396;DHT22;59888;55.814;37.132;2022-11-15T01:20:42;2.08;45.77
71396;DHT22;59888;55.814;37.132;2022-11-15T01:23:27;2.00;45.71
71396;DHT22;59888;55.814;37.132;2022-11-15T01:26:12;1.92;46.25
71396;DHT22;59888;55.814;37.132;2022-11-15T01:28:56;1.80;46.36
71396;DHT22;59888;55.814;37.132;2022-11-15T01:31:41;1.73;46.35
71396;DHT22;59888;55.814;37.132;2022-11-15T01:34:25;1.68;46.63
71396;DHT22;59888;55.814;37.132;2022-11-15T01:37:09;1.66;46.67
71396;DHT22;59888;55.814;37.132;2022-11-15T01:39:54;1.66;46.50
71396;DHT22;59888;55.814;37.132;2022-11-15T01:42:38;1.56;46.68
71396;DHT22;59888;55.814;37.132;2022-11-15T01:45:22;1.55;46.67
71396;DHT22;59888;55.814;37.132;2022-11-15T01:48:07;1.48;46.77
71396;DHT22;59888;55.814;37.132;2022-11-15T01:50:51;1.40;46.65
71396;DHT22;59888;55.814;37.132;2022-11-15T01:53:41;1.36;46.88
71396;DHT22;59888;55.814;37.132;2022-11-15T01:56:27;1.39;47.01
71396;DHT22;59888;55.814;37.132;2022-11-15T01:59:13;1.41;47.02
71396;DHT22;59888;55.814;37.132;2022-11-15T02:01:57;1.41;47.05
71396;DHT22;59888;55.814;37.132;2022-11-15T02:04:46;1.38;47.02
71396;DHT22;59888;55.814;37.132;2022-11-15T02:07:31;1.41;47.07
71396;DHT22;59888;55.814;37.132;2022-11-15T02:10:20;1.51;46.99
71396;DHT22;59888;55.814;37.132;2022-11-15T02:13:09;1.56;46.68
71396;DHT22;59888;55.814;37.132;2022-11-15T02:19:17;1.45;46.92
71396;DHT22;59888;55.814;37.132;2022-11-15T02:36:41;1.38;47.00
71396;DHT22;59888;55.814;37.132;2022-11-15T02:42:17;1.45;47.06
71396;DHT22;59888;55.814;37.132;2022-11-15T02:45:27;1.43;47.11
71396;DHT22;59888;55.814;37.132;2022-11-15T02:48:11;1.45;47.07
71396;DHT22;59888;55.814;37.132;2022-11-15T02:50:56;1.51;47.05
71396;DHT22;59888;55.814;37.132;2022-11-15T02:53:45;1.55;47.08
71396;DHT22;59888;55.814;37.132;2022-11-15T02:56:29;1.46;46.82
71396;DHT22;59888;55.814;37.132;2022-11-15T02:59:34;1.41;47.10
71396;DHT22;59888;55.814;37.132;2022-11-15T03:02:29;1.49;47.16
71396;DHT22;59888;55.814;37.132;2022-11-15T03:05:17;1.49;47.10
71396;DHT22;59888;55.814;37.132;2022-11-15T03:11:09;1.46;47.38
71396;DHT22;59888;55.814;37.132;2022-11-15T03:13:59;1.53;47.27
71396;DHT22;59888;55.814;37.132;2022-11-15T03:16:51;1.49;47.17
71396;DHT22;59888;55.814;37.132;2022-11-15T03:22:24;1.46;47.15
71396;DHT22;59888;55.814;37.132;2022-11-15T03:25:10;1.37;47.15
71396;DHT22;59888;55.814;37.132;2022-11-15T03:27:57;1.32;47.34
71396;DHT22;59888;55.814;37.132;2022-11-15T03:30:42;1.24;47.56
71396;DHT22;59888;55.814;37.132;2022-11-15T03:33:32;1.26;47.66
71396;DHT22;59888;55.814;37.132;2022-11-15T03:36:17;1.45;47.58
71396;DHT22;59888;55.814;37.132;2022-11-15T03:39:02;1.62;47.30
71396;DHT22;59888;55.814;37.132;2022-11-15T03:42:02;1.70;46.98
71396;DHT22;59888;55.814;37.132;2022-11-15T03:45:01;1.78;47.12
71396;DHT22;59888;55.814;37.132;2022-11-15T03:47:55;1.81;46.96
71396;DHT22;59888;55.814;37.132;2022-11-15T03:50:42;1.84;47.02
71396;DHT22;59888;55.814;37.132;2022-11-15T03:53:27;1.92;47.01
71396;DHT22;59888;55.814;37.132;2022-11-15T03:56:12;2.00;46.78
71396;DHT22;59888;55.814;37.132;2022-11-15T03:58:56;1.98;46.86
71396;DHT22;59888;55.814;37.132;2022-11-15T04:01:41;2.05;46.91
71396;DHT22;59888;55.814;37.132;2022-11-15T04:04:26;2.06;46.54
71396;DHT22;59888;55.814;37.132;2022-11-15T04:07:10;2.05;46.62
71396;DHT22;59888;55.814;37.132;2022-11-15T04:09:54;2.02;46.40
71396;DHT22;59888;55.814;37.132;2022-11-15T04:12:47;2.03;46.25
71396;DHT22;59888;55.814;37.132;2022-11-15T04:15:32;2.03;46.21
71396;DHT22;59888;55.814;37.132;2022-11-15T04:18:16;2.05;46.29
71396;DHT22;59888;55.814;37.132;2022-11-15T04:21:01;2.03;46.06
71396;DHT22;59888;55.814;37.132;2022-11-15T04:24:04;1.87;45.49
71396;DHT22;59888;55.814;37.132;2022-11-15T04:26:51;1.78;45.58
71396;DHT22;59888;55.814;37.132;2022-11-15T04:29:35;1.76;45.50
71396;DHT22;59888;55.814;37.132;2022-11-15T04:32:19;1.65;46.12
71396;DHT22;59888;55.814;37.132;2022-11-15T04:35:04;1.63;46.14
71396;DHT22;59888;55.814;37.132;2022-11-15T04:37:48;1.63;46.35
71396;DHT22;59888;55.814;37.132;2022-11-15T04:40:33;1.70;45.93
71396;DHT22;59888;55.814;37.132;2022-11-15T04:43:22;1.77;46.17
71396;DHT22;59888;55.814;37.132;2022-11-15T04:46:06;1.80;45.94
71396;DHT22;59888;55.814;37.132;2022-11-15T04:48:51;1.85;46.07
71396;DHT22;59888;55.814;37.132;2022-11-15T04:51:35;1.82;46.04
71396;DHT22;59888;55.814;37.132;2022-11-15T04:54:25;1.81;45.83
71396;DHT22;59888;55.814;37.132;2022-11-15T04:57:09;1.77;45.46
71396;DHT22;59888;55.814;37.132;2022-11-15T04:59:53;1.78;45.93
71396;DHT22;59888;55.814;37.132;2022-11-15T05:02:37;1.88;45.90
71396;DHT22;59888;55.814;37.132;2022-11-15T05:05:41;2.06;45.76
71396;DHT22;59888;55.814;37.132;2022-11-15T05:08:25;2.12;45.67
71396;DHT22;59888;55.814;37.132;2022-11-15T05:11:10;2.27;45.62
71396;DHT22;59888;55.814;37.132;2022-11-15T05:13:54;2.37;45.52
71396;DHT22;59888;55.814;37.132;2022-11-15T05:16:38;2.49;45.35
71396;DHT22;59888;55.814;37.132;2022-11-15T05:19:23;2.58;45.28
71396;DHT22;59888;55.814;37.132;2022-11-15T05:22:07;2.65;45.21
71396;DHT22;59888;55.814;37.132;2022-11-15T05:24:51;2.67;45.13
71396;DHT22;59888;55.814;37.132;2022-11-15T05:27:46;2.60;44.42
71396;DHT22;59888;55.814;37.132;2022-11-15T05:30:31;2.50;45.25
71396;DHT22;59888;55.814;37.132;2022-11-15T05:33:25;2.58;45.15
71396;DHT22;59888;55.814;37.132;2022-11-15T05:38:54;2.67;44.86
71396;DHT22;59888;55.814;37.132;2022-11-15T05:41:42;2.62;44.67
71396;DHT22;59888;55.814;37.132;2022-11-15T05:44:28;2.46;45.09
71396;DHT22;59888;55.814;37.132;2022-11-15T05:47:13;2.54;45.36
71396;DHT22;59888;55.814;37.132;2022-11-15T05:49:59;2.53;45.28
71396;DHT22;59888;55.814;37.132;2022-11-15T05:52:44;2.58;45.44
71396;DHT22;59888;55.814;37.132;2022-11-15T05:55:29;2.64;45.35
71396;DHT22;59888;55.814;37.132;2022-11-15T05:58:14;2.50;45.16
71396;DHT22;59888;55.814;37.132;2022-11-15T06:00:58;2.31;45.41
71396;DHT22;59888;55.814;37.132;2022-11-15T06:03:43;2.30;45.59
71396;DHT22;59888;55.814;37.132;2022-11-15T06:06:28;2.29;45.85
71396;DHT22;59888;55.814;37.132;2022-11-15T06:09:12;2.32;45.75
71396;DHT22;59888;55.814;37.132;2022-11-15T06:11:56;2.30;45.96
71396;DHT22;59888;55.814;37.132;2022-11-15T06:14:40;2.21;45.97
71396;DHT22;59888;55.814;37.132;2022-11-15T06:17:25;2.19;46.04
71396;DHT22;59888;55.814;37.132;2022-11-15T06:20:09;2.14;45.69
71396;DHT22;59888;55.814;37.132;2022-11-15T06:22:57;2.09;45.57
71396;DHT22;59888;55.814;37.132;2022-11-15T06:25:41;2.02;46.19
71396;DHT22;59888;55.814;37.132;2022-11-15T06:28:28;2.13;46.22
71396;DHT22;59888;55.814;37.132;2022-11-15T06:31:13;2.30;46.19
71396;DHT22;59888;55.814;37.132;2022-11-15T06:33:57;2.34;45.74
71396;DHT22;59888;55.814;37.132;2022-11-15T06:36:41;2.34;45.61
71396;DHT22;59888;55.814;37.132;2022-11-15T06:39:26;2.27;45.60
71396;DHT22;59888;55.814;37.132;2022-11-15T06:42:10;2.31;45.61
71396;DHT22;59888;55.814;37.132;2022-11-15T06:44:59;2.37;45.66
71396;DHT22;59888;55.814;37.132;2022-11-15T06:47:46;2.28;45.73
71396;DHT22;59888;55.814;37.132;2022-11-15T06:50:30;2.28;45.41
71396;DHT22;59888;55.814;37.132;2022-11-15T06:53:15;2.30;45.80
71396;DHT22;59888;55.814;37.132;2022-11-15T06:56:00;2.44;45.77
71396;DHT22;59888;55.814;37.132;2022-11-15T06:58:44;2.61;45.69
71396;DHT22;59888;55.814;37.132;2022-11-15T07:01:28;2.62;45.46
71396;DHT22;59888;55.814;37.132;2022-11-15T07:04:12;2.55;44.74
71396;DHT22;59888;55.814;37.132;2022-11-15T07:06:57;2.54;45.57
71396;DHT22;59888;55.814;37.132;2022-11-15T07:10:04;2.60;45.64
71396;DHT22;59888;55.814;37.132;2022-11-15T07:16:16;2.64;45.48
71396;DHT22;59888;55.814;37.132;2022-11-15T07:19:00;2.76;45.39
71396;DHT22;59888;55.814;37.132;2022-11-15T07:21:44;2.81;45.38
71396;DHT22;59888;55.814;37.132;2022-11-15T07:24:28;2.88;44.98
71396;DHT22;59888;55.814;37.132;2022-11-15T07:27:13;2.89;45.46
71396;DHT22;59888;55.814;37.132;2022-11-15T07:29:57;2.80;44.73
71396;DHT22;59888;55.814;37.132;2022-11-15T07:32:41;2.65;45.16
71396;DHT22;59888;55.814;37.132;2022-11-15T07:35:26;2.70;45.35
71396;DHT22;59888;55.814;37.132;2022-11-15T07:38:11;2.74;45.52
71396;DHT22;59888;55.814;37.132;2022-11-15T07:41:00;2.76;45.41
71396;DHT22;59888;55.814;37.132;2022-11-15T07:43:44;2.76;45.35
71396;DHT22;59888;55.814;37.132;2022-11-15T07:46:28;2.85;45.23
71396;DHT22;59888;55.814;37.132;2022-11-15T07:49:13;3.00;45.12
71396;DHT22;59888;55.814;37.132;2022-11-15T07:52:00;3.18;45.19
71396;DHT22;59888;55.814;37.132;2022-11-15T07:54:45;3.38;44.92
71396;DHT22;59888;55.814;37.132;2022-11-15T07:57:30;3.39;44.74
71396;DHT22;59888;55.814;37.132;2022-11-15T08:00:14;3.46;44.83
71396;DHT22;59888;55.814;37.132;2022-11-15T08:03:09;3.58;44.74
71396;DHT22;59888;55.814;37.132;2022-11-15T08:13:21;3.82;44.38
71396;DHT22;59888;55.814;37.132;2022-11-15T08:16:06;3.91;44.48
71396;DHT22;59888;55.814;37.132;2022-11-15T08:18:50;3.80;44.10
71396;DHT22;59888;55.814;37.132;2022-11-15T08:21:34;3.72;44.14
71396;DHT22;59888;55.814;37.132;2022-11-15T08:24:24;3.70;43.82
71396;DHT22;59888;55.814;37.132;2022-11-15T08:27:08;3.72;44.45
71396;DHT22;59888;55.814;37.132;2022-11-15T08:29:58;3.80;44.64
71396;DHT22;59888;55.814;37.132;2022-11-15T08:32:43;3.78;44.58
71396;DHT22;59888;55.814;37.132;2022-11-15T08:35:27;3.74;44.36
71396;DHT22;59888;55.814;37.132;2022-11-15T08:38:12;3.71;44.62
71396;DHT22;59888;55.814;37.132;2022-11-15T08:41:00;3.85;44.45
71396;DHT22;59888;55.814;37.132;2022-11-15T08:43:50;3.91;44.30
71396;DHT22;59888;55.814;37.132;2022-11-15T08:46:34;3.93;44.31
71396;DHT22;59888;55.814;37.132;2022-11-15T08:49:18;3.89;44.06
71396;DHT22;59888;55.814;37.132;2022-11-15T08:52:03;3.89;44.66
71396;DHT22;59888;55.814;37.132;2022-11-15T08:54:47;3.90;44.51
71396;DHT22;59888;55.814;37.132;2022-11-15T08:57:31;3.99;44.61
71396;DHT22;59888;55.814;37.132;2022-11-15T09:00:16;3.98;44.39
71396;DHT22;59888;55.814;37.132;2022-11-15T09:03:03;4.04;44.43
71396;DHT22;59888;55.814;37.132;2022-11-15T09:05:47;4.15;44.42
71396;DHT22;59888;55.814;37.132;2022-11-15T09:08:31;4.16;44.49
71396;DHT22;59888;55.814;37.132;2022-11-15T09:11:16;4.03;44.24
71396;DHT22;59888;55.814;37.132;2022-11-15T09:14:04;3.97;44.11
71396;DHT22;59888;55.814;37.132;2022-11-15T09:16:48;3.86;44.59
71396;DHT22;59888;55.814;37.132;2022-11-15T09:19:32;3.84;44.61
71396;DHT22;59888;55.814;37.132;2022-11-15T09:22:17;3.89;44.52
71396;DHT22;59888;55.814;37.132;2022-11-15T09:25:06;3.97;44.39
71396;DHT22;59888;55.814;37.132;2022-11-15T09:27:51;3.91;44.67
71396;DHT22;59888;55.814;37.132;2022-11-15T09:30:35;3.83;44.32
71396;DHT22;59888;55.814;37.132;2022-11-15T09:33:19;3.69;44.42
71396;DHT22;59888;55.814;37.132;2022-11-15T09:36:05;3.64;44.58
71396;DHT22;59888;55.814;37.132;2022-11-15T09:38:49;3.57;44.55
71396;DHT22;59888;55.814;37.132;2022-11-15T09:41:38;3.54;44.94
71396;DHT22;59888;55.814;37.132;2022-11-15T09:47:32;3.68;44.93
71396;DHT22;59888;55.814;37.132;2022-11-15T09:50:37;3.80;44.80
71396;DHT22;59888;55.814;37.132;2022-11-15T09:53:04;3.83;45.05
71396;DHT22;59888;55.814;37.132;2022-11-15T09:55:35;3.73;44.99
71396;DHT22;59888;55.814;37.132;2022-11-15T09:58:36;3.62;44.88
71396;DHT22;59888;55.814;37.132;2022-11-15T10:00:54;3.72;44.90
71396;DHT22;59888;55.814;37.132;2022-11-15T10:03:24;3.82;44.87
71396;DHT22;59888;55.814;37.132;2022-11-15T10:05:51;3.89;44.75
71396;DHT22;59888;55.814;37.132;2022-11-15T10:10:53;3.90;44.64
71396;DHT22;59888;55.814;37.132;2022-11-15T10:13:28;3.84;44.70
71396;DHT22;59888;55.814;37.132;2022-11-15T10:15:57;3.84;44.83
71396;DHT22;59888;55.814;37.132;2022-11-15T10:18:29;3.89;44.77
71396;DHT22;59888;55.814;37.132;2022-11-15T10:21:00;3.92;44.72
71396;DHT22;59888;55.814;37.132;2022-11-15T10:23:28;3.90;44.67
71396;DHT22;59888;55.814;37.132;2022-11-15T10:25:55;3.91;44.79
71396;DHT22;59888;55.814;37.132;2022-11-15T10:28:22;3.88;44.71
71396;DHT22;59888;55.814;37.132;2022-11-15T10:30:52;3.84;44.83
71396;DHT22;59888;55.814;37.132;2022-11-15T10:33:39;3.79;44.95
71396;DHT22;59888;55.814;37.132;2022-11-15T10:43:41;3.83;45.34
71396;DHT22;59888;55.814;37.132;2022-11-15T10:46:18;3.82;45.47
71396;DHT22;59888;55.814;37.132;2022-11-15T10:48:44;3.79;45.79
71396;DHT22;59888;55.814;37.132;2022-11-15T10:51:20;3.84;45.95
71396;DHT22;59888;55.814;37.132;2022-11-15T10:53:52;3.83;45.93
71396;DHT22;59888;55.814;37.132;2022-11-15T10:56:22;3.83;46.33
71396;DHT22;59888;55.814;37.132;2022-11-15T10:58:52;3.90;46.42
71396;DHT22;59888;55.814;37.132;2022-11-15T11:01:19;3.78;46.36
71396;DHT22;59888;55.814;37.132;2022-11-15T11:03:57;3.73;46.54
71396;DHT22;59888;55.814;37.132;2022-11-15T11:06:24;3.78;46.59
71396;DHT22;59888;55.814;37.132;2022-11-15T11:08:57;3.68;46.76
71396;DHT22;59888;55.814;37.132;2022-11-15T11:11:23;3.52;47.01
71396;DHT22;59888;55.814;37.132;2022-11-15T11:13:49;3.43;47.35
71396;DHT22;59888;55.814;37.132;2022-11-15T11:21:18;3.45;48.04
71396;DHT22;59888;55.814;37.132;2022-11-15T11:23:57;3.28;48.31
71396;DHT22;59888;55.814;37.132;2022-11-15T11:31:57;3.04;49.76
71396;DHT22;59888;55.814;37.132;2022-11-15T11:34:41;2.87;49.89
71396;DHT22;59888;55.814;37.132;2022-11-15T11:45:01;2.54;51.58
71396;DHT22;59888;55.814;37.132;2022-11-15T11:47:31;2.54;51.60
71396;DHT22;59888;55.814;37.132;2022-11-15T11:50:10;2.67;51.69
71396;DHT22;59888;55.814;37.132;2022-11-15T11:55:15;2.89;51.61
71396;DHT22;59888;55.814;37.132;2022-11-15T11:57:50;2.96;51.56
71396;DHT22;59888;55.814;37.132;2022-11-15T12:00:21;3.00;51.54
71396;DHT22;59888;55.814;37.132;2022-11-15T12:05:25;3.00;51.60
71396;DHT22;59888;55.814;37.132;2022-11-15T12:07:53;3.00;51.76
71396;DHT22;59888;55.814;37.132;2022-11-15T12:10:28;3.00;51.79
71396;DHT22;59888;55.814;37.132;2022-11-15T12:13:10;2.90;51.94
71396;DHT22;59888;55.814;37.132;2022-11-15T12:15:39;2.86;52.07
71396;DHT22;59888;55.814;37.132;2022-11-15T12:18:07;2.87;52.35
71396;DHT22;59888;55.814;37.132;2022-11-15T12:20:35;2.89;52.54
71396;DHT22;59888;55.814;37.132;2022-11-15T12:23:07;2.89;52.69
71396;DHT22;59888;55.814;37.132;2022-11-15T12:25:50;2.94;51.93
71396;DHT22;59888;55.814;37.132;2022-11-15T12:28:19;2.88;52.61
71396;DHT22;59888;55.814;37.132;2022-11-15T12:30:52;2.85;52.65
71396;DHT22;59888;55.814;37.132;2022-11-15T12:36:02;2.90;52.92
71396;DHT22;59888;55.814;37.132;2022-11-15T12:41:17;2.90;52.88
71396;DHT22;59888;55.814;37.132;2022-11-15T12:43:44;2.82;53.07
71396;DHT22;59888;55.814;37.132;2022-11-15T12:48:46;2.76;53.16
71396;DHT22;59888;55.814;37.132;2022-11-15T12:51:12;2.71;53.28
71396;DHT22;59888;55.814;37.132;2022-11-15T12:53:38;2.68;53.20
71396;DHT22;59888;55.814;37.132;2022-11-15T13:17:51;2.70;54.01
71396;DHT22;59888;55.814;37.132;2022-11-15T13:20:00;2.72;53.52
71396;DHT22;59888;55.814;37.132;2022-11-15T13:22:27;2.61;53.85
71396;DHT22;59888;55.814;37.132;2022-11-15T13:27:55;2.58;53.80
71396;DHT22;59888;55.814;37.132;2022-11-15T13:30:27;2.51;54.12
71396;DHT22;59888;55.814;37.132;2022-11-15T13:33:00;2.43;54.13
71396;DHT22;59888;55.814;37.132;2022-11-15T13:35:32;2.38;54.06
71396;DHT22;59888;55.814;37.132;2022-11-15T13:38:03;2.37;54.08
71396;DHT22;59888;55.814;37.132;2022-11-15T13:40:29;2.32;54.01
71396;DHT22;59888;55.814;37.132;2022-11-15T13:42:59;2.34;54.62
71396;DHT22;59888;55.814;37.132;2022-11-15T13:45:25;2.35;54.43
71396;DHT22;59888;55.814;37.132;2022-11-15T13:47:55;2.30;55.36
71396;DHT22;59888;55.814;37.132;2022-11-15T13:50:23;2.28;55.18
71396;DHT22;59888;55.814;37.132;2022-11-15T13:52:50;2.31;55.20
71396;DHT22;59888;55.814;37.132;2022-11-15T13:55:17;2.45;54.93
71396;DHT22;59888;55.814;37.132;2022-11-15T14:02:50;2.50;54.68
71396;DHT22;59888;55.814;37.132;2022-11-15T14:07:52;2.52;55.00
71396;DHT22;59888;55.814;37.132;2022-11-15T14:10:25;2.44;55.39
71396;DHT22;59888;55.814;37.132;2022-11-15T14:12:52;2.40;55.13
71396;DHT22;59888;55.814;37.132;2022-11-15T14:15:26;2.35;55.23
71396;DHT22;59888;55.814;37.132;2022-11-15T14:17:53;2.32;55.33
71396;DHT22;59888;55.814;37.132;2022-11-15T14:20:35;2.38;55.26
71396;DHT22;59888;55.814;37.132;2022-11-15T14:23:03;2.35;55.27
71396;DHT22;59888;55.814;37.132;2022-11-15T14:25:36;2.38;55.52
71396;DHT22;59888;55.814;37.132;2022-11-15T14:28:12;2.39;55.63
71396;DHT22;59888;55.814;37.132;2022-11-15T14:30:38;2.39;55.79
71396;DHT22;59888;55.814;37.132;2022-11-15T14:33:25;2.30;56.07
71396;DHT22;59888;55.814;37.132;2022-11-15T14:35:54;2.26;56.04
71396;DHT22;59888;55.814;37.132;2022-11-15T14:38:21;2.34;56.11
71396;DHT22;59888;55.814;37.132;2022-11-15T14:40:47;2.39;55.65
71396;DHT22;59888;55.814;37.132;2022-11-15T14:43:13;2.44;55.71
71396;DHT22;59888;55.814;37.132;2022-11-15T14:45:38;2.43;55.89
71396;DHT22;59888;55.814;37.132;2022-11-15T14:48:04;2.35;55.44
71396;DHT22;59888;55.814;37.132;2022-11-15T14:50:31;2.29;55.71
71396;DHT22;59888;55.814;37.132;2022-11-15T14:52:57;2.24;56.15
71396;DHT22;59888;55.814;37.132;2022-11-15T14:55:23;2.21;56.39
71396;DHT22;59888;55.814;37.132;2022-11-15T14:57:49;2.23;56.16
71396;DHT22;59888;55.814;37.132;2022-11-15T15:00:15;2.29;56.03
71396;DHT22;59888;55.814;37.132;2022-11-15T15:02:44;2.25;56.14
71396;DHT22;59888;55.814;37.132;2022-11-15T15:05:20;2.20;56.39
71396;DHT22;59888;55.814;37.132;2022-11-15T15:07:46;2.16;56.38
71396;DHT22;59888;55.814;37.132;2022-11-15T15:10:12;2.16;56.25
71396;DHT22;59888;55.814;37.132;2022-11-15T15:12:38;2.24;56.23
71396;DHT22;59888;55.814;37.132;2022-11-15T15:15:13;2.23;55.96
71396;DHT22;59888;55.814;37.132;2022-11-15T15:17:39;2.25;56.01
71396;DHT22;59888;55.814;37.132;2022-11-15T15:20:05;2.25;56.03
71396;DHT22;59888;55.814;37.132;2022-11-15T15:22:31;2.29;56.10
71396;DHT22;59888;55.814;37.132;2022-11-15T15:24:57;2.30;56.01
71396;DHT22;59888;55.814;37.132;2022-11-15T15:27:22;2.30;55.79
71396;DHT22;59888;55.814;37.132;2022-11-15T15:29:48;2.24;56.06
71396;DHT22;59888;55.814;37.132;2022-11-15T15:32:14;2.20;56.23
71396;DHT22;59888;55.814;37.132;2022-11-15T15:34:40;2.20;56.21
71396;DHT22;59888;55.814;37.132;2022-11-15T15:39:43;2.25;56.35
71396;DHT22;59888;55.814;37.132;2022-11-15T15:42:09;2.26;56.32
71396;DHT22;59888;55.814;37.132;2022-11-15T15:44:35;2.28;56.61
71396;DHT22;59888;55.814;37.132;2022-11-15T15:47:00;2.25;56.39
71396;DHT22;59888;55.814;37.132;2022-11-15T15:49:26;2.25;56.42
71396;DHT22;59888;55.814;37.132;2022-11-15T15:51:52;2.34;56.54
71396;DHT22;59888;55.814;37.132;2022-11-15T15:54:32;2.32;56.68
71396;DHT22;59888;55.814;37.132;2022-11-15T15:56:58;2.29;57.22
71396;DHT22;59888;55.814;37.132;2022-11-15T15:59:24;2.22;56.92
71396;DHT22;59888;55.814;37.132;2022-11-15T16:01:49;2.27;56.91
71396;DHT22;59888;55.814;37.132;2022-11-15T16:04:15;2.31;56.87
71396;DHT22;59888;55.814;37.132;2022-11-15T16:06:41;2.34;57.05
71396;DHT22;59888;55.814;37.132;2022-11-15T16:09:13;2.36;56.95
71396;DHT22;59888;55.814;37.132;2022-11-15T16:11:39;2.35;57.04
71396;DHT22;59888;55.814;37.132;2022-11-15T16:14:05;2.36;56.99
71396;DHT22;59888;55.814;37.132;2022-11-15T16:16:31;2.36;56.88
71396;DHT22;59888;55.814;37.132;2022-11-15T16:18:57;2.35;56.65
71396;DHT22;59888;55.814;37.132;2022-11-15T16:21:22;2.29;56.97
71396;DHT22;59888;55.814;37.132;2022-11-15T16:23:48;2.32;56.84
71396;DHT22;59888;55.814;37.132;2022-11-15T16:26:20;2.36;56.86
71396;DHT22;59888;55.814;37.132;2022-11-15T16:28:46;2.32;56.97
71396;DHT22;59888;55.814;37.132;2022-11-15T16:31:11;2.31;57.08
71396;DHT22;59888;55.814;37.132;2022-11-15T16:33:42;2.23;57.14
71396;DHT22;59888;55.814;37.132;2022-11-15T16:36:19;2.26;57.78
71396;DHT22;59888;55.814;37.132;2022-11-15T16:38:45;2.21;57.27
71396;DHT22;59888;55.814;37.132;2022-11-15T16:41:10;2.21;57.26
71396;DHT22;59888;55.814;37.132;2022-11-15T16:43:39;2.20;57.38
71396;DHT22;59888;55.814;37.132;2022-11-15T16:48:59;2.24;57.31
71396;DHT22;59888;55.814;37.132;2022-11-15T16:51:25;2.32;57.22
71396;DHT22;59888;55.814;37.132;2022-11-15T16:53:51;2.36;57.11
71396;DHT22;59888;55.814;37.132;2022-11-15T16:56:19;2.35;57.32
71396;DHT22;59888;55.814;37.132;2022-11-15T16:58:45;2.43;57.22
71396;DHT22;59888;55.814;37.132;2022-11-15T17:01:22;2.46;57.26
71396;DHT22;59888;55.814;37.132;2022-11-15T17:03:52;2.47;57.26
71396;DHT22;59888;55.814;37.132;2022-11-15T17:06:18;2.50;57.17
71396;DHT22;59888;55.814;37.132;2022-11-15T17:08:44;2.57;57.17
71396;DHT22;59888;55.814;37.132;2022-11-15T17:11:12;2.60;57.04
71396;DHT22;59888;55.814;37.132;2022-11-15T17:13:49;2.65;57.16
71396;DHT22;59888;55.814;37.132;2022-11-15T17:16:16;2.65;57.21
71396;DHT22;59888;55.814;37.132;2022-11-15T17:18:42;2.68;57.05
71396;DHT22;59888;55.814;37.132;2022-11-15T17:23:37;2.78;56.84
71396;DHT22;59888;55.814;37.132;2022-11-15T17:26:03;2.80;56.82
71396;DHT22;59888;55.814;37.132;2022-11-15T17:28:33;2.79;56.85
71396;DHT22;59888;55.814;37.132;2022-11-15T17:30:59;2.72;56.99
71396;DHT22;59888;55.814;37.132;2022-11-15T17:33:25;2.66;57.03
71396;DHT22;59888;55.814;37.132;2022-11-15T17:35:55;2.65;57.00
71396;DHT22;59888;55.814;37.132;2022-11-15T17:38:20;2.70;57.02
71396;DHT22;59888;55.814;37.132;2022-11-15T17:40:46;2.70;56.94
71396;DHT22;59888;55.814;37.132;2022-11-15T17:43:12;2.71;56.87
71396;DHT22;59888;55.814;37.132;2022-11-15T17:45:40;2.73;57.00
71396;DHT22;59888;55.814;37.132;2022-11-15T17:48:06;2.72;57.01
71396;DHT22;59888;55.814;37.132;2022-11-15T17:50:32;2.76;56.97
71396;DHT22;59888;55.814;37.132;2022-11-15T17:52:58;2.79;56.77
71396;DHT22;59888;55.814;37.132;2022-11-15T17:55:24;2.72;56.94
71396;DHT22;59888;55.814;37.132;2022-11-15T17:57:50;2.76;57.00
71396;DHT22;59888;55.814;37.132;2022-11-15T18:00:15;2.81;56.91
71396;DHT22;59888;55.814;37.132;2022-11-15T18:02:43;2.81;56.83
71396;DHT22;59888;55.814;37.132;2022-11-15T18:05:09;2.79;56.74
71396;DHT22;59888;55.814;37.132;2022-11-15T18:07:35;2.80;56.89
71396;DHT22;59888;55.814;37.132;2022-11-15T18:10:00;2.81;56.84
71396;DHT22;59888;55.814;37.132;2022-11-15T18:12:26;2.81;57.00
71396;DHT22;59888;55.814;37.132;2022-11-15T18:14:52;2.76;57.32
71396;DHT22;59888;55.814;37.132;2022-11-15T18:17:17;2.72;57.01
71396;DHT22;59888;55.814;37.132;2022-11-15T18:19:43;2.68;57.22
71396;DHT22;59888;55.814;37.132;2022-11-15T18:22:09;2.69;57.11
71396;DHT22;59888;55.814;37.132;2022-11-15T18:24:35;2.68;57.51
71396;DHT22;59888;55.814;37.132;2022-11-15T18:27:03;2.70;57.19
71396;DHT22;59888;55.814;37.132;2022-11-15T18:29:29;2.73;57.35
71396;DHT22;59888;55.814;37.132;2022-11-15T18:31:56;2.74;57.26
71396;DHT22;59888;55.814;37.132;2022-11-15T18:34:23;2.78;57.27
71396;DHT22;59888;55.814;37.132;2022-11-15T18:36:50;2.80;57.25
71396;DHT22;59888;55.814;37.132;2022-11-15T18:39:16;2.75;57.42
71396;DHT22;59888;55.814;37.132;2022-11-15T18:41:42;2.78;57.36